Latest Weather Observations for Bougainville Reef

IDQ60801

Issued at 3:02 am EST Tuesday 28 April 2015 (issued every 30 minutes, with the page automatically refreshed every 10 minutes)

About weather observations | Map of weather stations | Latest weather observations for QLD | Other Formats
Station Details ID: 200840 Name: BOUGAINVILLE REEF Lat: -15.49 Lon: 147.12 Height: 0.0 m
Data from the previous 72 hours. | See also: Recent months for locations in Queensland
Date/Time
EST
Temp
°C
App
Temp
°C
Dew
Point
Rel
Hum
%
Delta-T
°C
Wind Press
QNH
hPa
Press
MSL
hPa
Rain
since 9 am
mm
Dir
 
Spd
km/h
Gust
km/h
Spd
kts
Gust
kts
28/03:00am 25.4 - - - - SE 37 43 20 23 1014.4 - -
28/02:49am 25.3 - - - - SE 35 37 19 20 1014.4 1014.3 -
28/02:30am 25.4 - - - - SE 37 46 20 25 1014.4 - -
28/02:00am 25.4 - - - - SE 39 44 21 24 1014.5 - -
28/01:49am 25.4 - - - - SE 37 - 20 - - 1014.5 -
28/01:30am 25.4 - - - - SE 37 43 20 23 1014.8 - -
28/01:00am 25.5 - - - - SE 39 46 21 25 1015.5 - -
28/12:49am 25.5 - - - - SE 39 - 21 - - 1015.4 -
28/12:30am 25.5 - - - - SE 39 46 21 25 1015.6 - -
28/12:00am 25.7 - - - - SE 39 48 21 26 1015.7 1015.6 -
 
Date/Time
EST
Temp
°C
App
Temp
°C
Dew
Point
Rel
Hum
%
Delta-T
°C
Wind Press
QNH
hPa
Press
MSL
hPa
Rain
since 9 am
mm
Dir
 
Spd
km/h
Gust
km/h
Spd
kts
Gust
kts
27/11:49pm 25.8 - - - - SE 41 - 22 - - 1015.7 -
27/11:30pm 25.9 - - - - SE 39 46 21 25 1016.0 - -
27/11:00pm 26.0 - - - - SSE 39 44 21 24 1016.3 - -
27/10:49pm 26.1 - - - - SE 39 - 21 - - 1016.3 -
27/10:30pm 26.0 - - - - SSE 39 46 21 25 1016.5 - -
27/10:00pm 26.0 - - - - SE 41 48 22 26 1016.4 - -
27/09:49pm 26.0 - - - - SE 43 - 23 - - 1016.2 -
27/09:30pm 26.0 - - - - SSE 41 48 22 26 1016.2 - -
27/09:00pm 26.1 - - - - SSE 41 46 22 25 1016.2 1016.1 -
27/08:49pm 26.0 - - - - SE 39 - 21 - - 1016.0 -
27/08:30pm 26.0 - - - - SSE 41 46 22 25 1015.8 - -
27/08:00pm 26.2 - - - - SE 39 54 21 29 1015.5 - -
27/07:49pm 26.2 - - - - SE 39 - 21 - - 1015.2 -
27/07:30pm 26.2 - - - - SE 41 46 22 25 1015.0 - -
27/07:00pm 26.1 - - - - SE 41 48 22 26 1014.5 - -
27/06:49pm 26.1 - - - - SE 41 - 22 - - 1014.3 -
27/06:30pm 26.2 - - - - SE 43 50 23 27 1014.1 - -
27/06:00pm 26.2 - - - - SE 41 50 22 27 1013.8 - -
27/05:49pm 26.2 - - - - SE 43 - 23 - - 1013.6 -
27/05:30pm 26.3 - - - - SE 43 48 23 26 1013.5 - -
27/05:00pm 26.3 - - - - SE 41 50 22 27 1013.3 - -
27/04:49pm 26.4 - - - - SSE 41 - 22 - - 1013.1 -
27/04:30pm 26.3 - - - - SSE 41 48 22 26 1013.0 - -
27/04:00pm 26.4 - - - - SE 43 48 23 26 1012.8 - -
27/03:49pm 26.4 - - - - SE 41 - 22 - - 1012.7 -
27/03:30pm 26.4 - - - - SSE 41 52 22 28 1012.7 - -
27/03:00pm 26.6 - - - - SSE 43 52 23 28 1012.5 1012.4 -
27/02:30pm 26.7 - - - - SE 41 46 22 25 1012.6 - -
27/02:00pm 26.7 - - - - SSE 41 48 22 26 1012.8 1012.8 -
27/01:30pm 26.6 - - - - SSE 41 48 22 26 1013.0 - -
27/01:00pm 26.6 - - - - SE 39 46 21 25 1013.3 1013.3 -
27/12:30pm 26.6 - - - - SE 41 46 22 25 1013.5 - -
27/12:00pm 26.5 - - - - SE 39 44 21 24 1014.1 - -
27/11:49am 26.4 - - - - SE 39 - 21 - - 1014.0 -
27/11:30am 26.5 - - - - SE 39 48 21 26 1014.4 - -
27/11:00am 26.6 - - - - SE 39 46 21 25 1014.6 - -
27/10:49am 26.6 - - - - SE 37 - 20 - - 1014.8 -
27/10:30am 26.3 - - - - SE 39 50 21 27 1015.2 - -
27/10:00am 26.4 - - - - SE 39 46 21 25 1015.3 - -
27/09:49am 26.3 - - - - SE 39 - 21 - - 1015.3 -
27/09:30am 26.4 - - - - SE 39 44 21 24 1015.3 - -
27/09:00am 26.4 - - - - SE 41 50 22 27 1015.1 - -
27/08:49am 26.4 - - - - SE 39 - 21 - - 1015.0 -
27/08:30am 26.4 - - - - SE 37 44 20 24 1014.9 - -
27/08:00am 26.2 - - - - SE 39 46 21 25 1014.6 - -
27/07:49am 26.2 - - - - SE 39 - 21 - - 1014.3 -
27/07:30am 26.1 - - - - SE 39 48 21 26 1014.3 - -
27/07:00am 26.1 - - - - SE 39 44 21 24 1014.0 - -
27/06:49am 26.1 - - - - SE 37 - 20 - - 1013.7 -
27/06:30am 26.1 - - - - SE 39 46 21 25 1013.7 - -
27/06:00am 25.9 - - - - SE 37 43 20 23 1013.4 - -
27/05:49am 26.1 - - - - SE 37 - 20 - - 1013.1 -
27/05:30am 26.1 - - - - SE 35 43 19 23 1013.0 - -
27/05:00am 26.0 - - - - SE 35 39 19 21 1012.9 - -
27/04:49am 26.0 - - - - SE 35 - 19 - - 1012.8 -
27/04:30am 25.9 - - - - SE 35 43 19 23 1012.7 - -
27/04:00am 25.9 - - - - SE 33 41 18 22 1012.9 - -
27/03:49am 25.9 - - - - SE 33 - 18 - - 1012.8 -
27/03:30am 25.9 - - - - SE 33 39 18 21 1012.8 - -
27/03:00am 26.1 - - - - SE 35 39 19 21 1012.9 - -
27/02:49am 26.0 - - - - SE 33 - 18 - - 1012.9 -
27/02:30am 26.1 - - - - SE 33 39 18 21 1013.1 - -
27/02:00am 26.1 - - - - SE 35 41 19 22 1013.1 - -
27/01:49am 26.1 - - - - SSE 35 - 19 - - 1013.1 -
27/01:30am 26.0 - - - - SSE 35 43 19 23 1013.3 - -
27/01:00am 26.1 - - - - SSE 35 41 19 22 1013.7 - -
27/12:49am 26.1 - - - - SSE 35 - 19 - - 1013.7 -
27/12:30am 26.2 - - - - SSE 35 43 19 23 1014.0 - -
27/12:00am 26.2 - - - - SE 35 39 19 21 1014.3 - -
 
Date/Time
EST
Temp
°C
App
Temp
°C
Dew
Point
Rel
Hum
%
Delta-T
°C
Wind Press
QNH
hPa
Press
MSL
hPa
Rain
since 9 am
mm
Dir
 
Spd
km/h
Gust
km/h
Spd
kts
Gust
kts
26/11:49pm 26.2 - - - - SE 33 - 18 - - 1014.3 -
26/11:30pm 26.2 - - - - SE 37 41 20 22 1014.4 - -
26/11:00pm 26.3 - - - - SE 35 41 19 22 1014.5 1014.4 -
26/10:30pm 26.4 - - - - SSE 35 41 19 22 1014.5 - -
26/10:00pm 26.6 - - - - SSE 37 43 20 23 1014.6 1014.5 -
26/09:30pm 26.6 - - - - SSE 37 43 20 23 1014.6 - -
26/09:00pm 26.7 - - - - SSE 39 43 21 23 1014.4 1014.2 -
26/08:30pm 26.7 - - - - SSE 37 43 20 23 1014.1 - -
26/08:00pm 26.6 - - - - SSE 37 43 20 23 1013.8 1013.6 -
26/07:30pm 26.5 - - - - SSE 37 44 20 24 1013.4 - -
26/07:00pm 26.5 - - - - SSE 37 44 20 24 1013.0 1012.7 -
26/06:30pm 26.6 - - - - SSE 39 46 21 25 1012.6 - -
26/06:00pm 26.6 - - - - SSE 41 46 22 25 1012.3 1012.1 -
26/05:30pm 26.6 - - - - SSE 41 48 22 26 1012.2 - -
26/05:00pm 26.5 - - - - SSE 32 35 17 19 1012.0 1011.8 -
26/04:30pm 26.5 - - - - SSE 30 35 16 19 1011.7 - -
26/04:00pm 26.6 - - - - SSE 28 33 15 18 1011.6 1011.5 -
26/03:30pm 26.4 - - - - SSE 30 33 16 18 1011.5 - -
26/03:00pm 26.1 - - - - S 26 33 14 18 1011.5 1011.5 -
26/02:30pm 26.1 - - - - SSE 28 33 15 18 1011.6 - -
26/02:00pm 26.2 - - - - S 26 32 14 17 1011.7 - -
26/01:49pm 26.1 - - - - S 26 - 14 - - 1011.6 -
26/01:30pm 26.2 - - - - SSE 26 32 14 17 1011.7 - -
26/01:00pm 26.1 - - - - SSE 26 30 14 16 1012.0 - -
26/12:49pm 26.0 - - - - SSE 26 - 14 - - 1012.0 -
26/12:30pm 26.0 - - - - SSE 24 30 13 16 1012.4 - -
26/12:00pm 26.0 - - - - SSE 24 28 13 15 1012.8 - -
26/11:49am 25.9 - - - - SSE 26 - 14 - - 1012.8 -
26/11:00am 25.8 - - - - SSE 24 32 13 17 1013.4 - -
26/10:49am 26.0 - - - - S 22 - 12 - - 1013.4 -
26/10:30am 25.9 - - - - SSE 22 28 12 15 1013.7 - -
26/10:00am 25.8 - - - - SSE 22 28 12 15 1013.8 - -
26/09:49am 25.8 - - - - SSE 20 - 11 - - 1013.6 -
26/09:30am 25.8 - - - - S 20 26 11 14 1013.7 - -
26/09:00am 25.8 - - - - SSE 22 28 12 15 1013.5 - -
26/08:49am 25.8 - - - - SSE 22 - 12 - - 1013.3 -
26/08:30am 25.8 - - - - SSE 22 26 12 14 1013.2 - -
26/08:00am 25.8 - - - - SSE 17 20 9 11 1013.1 - -
26/07:49am 25.8 - - - - SSE 15 - 8 - - 1013.0 -
26/07:00am 25.6 - - - - SE 13 17 7 9 1012.7 1012.5 -
26/06:30am 25.5 - - - - SE 13 17 7 9 1012.4 - -
26/06:00am 25.4 - - - - ESE 13 17 7 9 1012.0 1011.7 -
26/05:30am 25.5 - - - - SE 11 13 6 7 1011.8 - -
26/05:00am 25.5 - - - - ESE 13 17 7 9 1011.3 1011.2 -
26/04:30am 25.5 - - - - ESE 13 17 7 9 1011.2 - -
26/04:00am 25.6 - - - - ESE 13 15 7 8 1010.8 1010.7 -
26/03:30am 25.6 - - - - ESE 15 17 8 9 1010.8 - -
26/03:00am 25.6 - - - - ESE 15 20 8 11 1010.8 1010.7 -
26/02:30am 25.6 - - - - ESE 15 19 8 10 1010.8 - -
26/02:00am 25.6 - - - - ESE 17 19 9 10 1010.9 1010.9 -
26/01:30am 25.7 - - - - ESE 17 20 9 11 1011.0 - -
26/01:00am 25.8 - - - - SE 19 20 10 11 1011.4 1011.5 -
26/12:30am 25.8 - - - - SE 19 22 10 12 1011.7 - -
26/12:00am 25.9 - - - - SE 17 20 9 11 1012.1 1012.2 -
 
Date/Time
EST
Temp
°C
App
Temp
°C
Dew
Point
Rel
Hum
%
Delta-T
°C
Wind Press
QNH
hPa
Press
MSL
hPa
Rain
since 9 am
mm
Dir
 
Spd
km/h
Gust
km/h
Spd
kts
Gust
kts
25/11:30pm 25.9 - - - - SE 15 17 8 9 1012.5 - -
25/11:00pm 25.9 - - - - SE 19 20 10 11 1012.5 1012.4 -
25/10:30pm 25.9 - - - - SSE 19 20 10 11 1012.7 - -
25/10:00pm 25.9 - - - - S 17 20 9 11 1012.8 1012.9 -
25/09:30pm 25.9 - - - - SSE 19 22 10 12 1013.0 - -
25/09:00pm 26.0 - - - - S 19 24 10 13 1013.0 1012.9 -
25/08:30pm 25.9 - - - - S 20 26 11 14 1012.8 - -
25/08:00pm 26.0 - - - - S 19 26 10 14 1012.5 1012.3 -
25/07:30pm 26.0 - - - - S 19 24 10 13 1012.0 - -
25/07:00pm 26.0 - - - - S 19 20 10 11 1011.6 1011.4 -
25/06:30pm 26.0 - - - - S 17 22 9 12 1011.2 - -
25/06:00pm 26.1 - - - - S 17 24 9 13 1011.0 1010.7 -
25/05:30pm 26.2 - - - - S 15 20 8 11 1010.7 - -
25/05:00pm 26.2 - - - - SSE 11 15 6 8 1010.7 1010.5 -
25/04:30pm 26.1 - - - - S 11 15 6 8 1010.5 - -
25/04:00pm 26.1 - - - - SSE 9 13 5 7 1010.1 - -
25/03:49pm 26.1 - - - - SE 13 - 7 - - 1009.9 -
25/03:30pm 26.0 - - - - SSE 11 13 6 7 1009.9 - -
25/03:00pm 26.0 - - - - SSE 11 15 6 8 1009.9 - -
25/02:49pm 26.0 - - - - S 13 - 7 - - 1009.8 -
25/02:30pm 25.9 - - - - SSE 13 17 7 9 1009.9 - -
25/02:00pm 25.9 - - - - SSE 9 15 5 8 1010.1 1010.1 -
25/01:30pm 25.9 - - - - SSE 9 13 5 7 1010.6 - -
25/01:00pm 25.9 - - - - SSE 9 11 5 6 1010.8 1010.7 -
25/12:30pm 25.9 - - - - SE 9 13 5 7 1010.9 - -
25/12:00pm 25.9 - - - - ESE 9 13 5 7 1011.1 - -
25/11:49am 25.7 - - - - SE 9 - 5 - - 1011.2 -
25/11:30am 25.8 - - - - SE 9 13 5 7 1011.4 - -
25/11:00am 25.7 - - - - SSE 11 17 6 9 1011.8 1011.8 -
25/10:30am 25.8 - - - - SSE 9 13 5 7 1012.2 - -
25/10:00am 25.7 - - - - SE 13 15 7 8 1012.3 1012.2 -
25/09:30am 25.8 - - - - ESE 13 17 7 9 1012.2 - -
25/09:00am 25.7 - - - - SSE 13 15 7 8 1011.9 1011.7 -
25/08:30am 25.7 - - - - SE 15 17 8 9 1011.6 - -
25/08:00am 25.7 - - - - SE 15 17 8 9 1011.5 1011.3 -
25/07:30am 25.7 - - - - SE 15 17 8 9 1011.2 - -
25/07:00am 25.6 - - - - ESE 15 19 8 10 1010.8 1010.6 -
25/06:30am 25.5 - - - - ESE 17 20 9 11 1010.5 - -
25/06:00am 25.5 - - - - ESE 15 17 8 9 1010.3 1010.1 -
25/05:30am 25.5 - - - - ESE 15 19 8 10 1010.1 - -
25/05:00am 25.5 - - - - ESE 15 20 8 11 1009.8 1009.6 -
25/04:30am 25.4 - - - - ESE 19 22 10 12 1009.7 - -
25/04:00am 25.6 - - - - ESE 19 22 10 12 1009.7 1009.5 -
25/03:30am 25.6 - - - - ESE 20 24 11 13 1009.5 - -

Other Formats:

Comma delimited format used in spreadsheet applications
http://www.bom.gov.au/fwo/IDQ60801/IDQ60801.95288.axf

JavaScript Object Notation format (JSON) in row-major order
http://www.bom.gov.au/fwo/IDQ60801/IDQ60801.95288.json